Palm Beach, FL (33480)

5:24 PM EDT on August 23, 2016 (GMT -0400)
Palm Beach, FL | | Change Station

Elev 8 ft 26.71 °N, 80.04 °W | Updated 2 seconds ago

Mostly Cloudy
Mostly Cloudy
88.0 °F
Feels Like 103 °F
N
4.9
Wind Variable Wind from North
Gusts 9.0 mph

Today
High -- | Low -- °F
--% Chance of Precip.
Yesterday
High -- | Low -- °F
Precip. -- in
Pressure 30.10 in
Visibility 10.0 miles
Clouds Scattered Clouds 2800 ft
Scattered Clouds 20000 ft
Mostly Cloudy 25000 ft
Heat Index 103 °F
Dew Point 79 °F
Humidity 75%
Rainfall 0.00 in
Snow Depth Not available.
6:55 AM 7:48 PM
Waning Gibbous, 64% visible
METAR KPBI 232053Z 06012KT 10SM SCT028 SCT200 BKN250 32/23 A3010 RMK AO2 SLP193 T03170233 56013
Pressure 30.10 in
Visibility 10.0 miles
Clouds Scattered Clouds 2800 ft
Scattered Clouds 20000 ft
Mostly Cloudy 25000 ft
Heat Index 103 °F
Dew Point 79 °F
Humidity 75%
Rainfall 0.00 in
Snow Depth Not available.
6:55 AM 7:48 PM
Waning Gibbous, 64% visible
METAR KPBI 232053Z 06012KT 10SM SCT028 SCT200 BKN250 32/23 A3010 RMK AO2 SLP193 T03170233 56013
We continue to monitor Invest 99L for the possibility of development into a tropical depression or storm as it approaches the Lesser Antilles, then heads in the general direction of the Bahamas late in the week.

Invest 99L will potentially be impactful in the near-future as it spreads locally heavy rain into the Leeward Islands and eventually Puerto Rico. A flash flood watch is in effect for the Virgin Islands and Puerto Rico from overnight tonight until noon on Thursday.

10-Day Weather Forecast

Almanac

Astronomy

Aug. 23, 2016 Rise Set
Actual Time
Civil Twilight
Nautical Twilight
Astronomical Twilight
Moon
Length of Visible Light
Length of Day
Tomorrow will be .
, % of the Moon is Illuminated

Today's Extremes

State Highs State Lows

Community

WunderPhotos

Upload Photos

1,934,464 photos uploaded!

WunderBlog® & News

Nearby

Air Quality

  Air Quality AQ Index Pollutant
Not available.

Snow Depth

Station Depth Elevation

Earthquake Activity

City Distance Mag. Time & Date
Minimum magnitude displayed is 2.5.

Coastal Water Temperatures

Place Temperature

Stations

Nearby Weather Stations

Station Location Temp. Windchill Dew Point Humidity Wind Precip. Elev Updated Type
                   

Watches & Warnings

There are currently no watches in effect.